Amityville, New York
Current Conditions -  °F | °C
As of 3:53 AM on Sunday 26 Oct 2014 (Local Time) from KFRG Reporting Station
Clear Clear  
Wind Chill: 56°   Ceiling: Unl
Heat Index: 56°   Visibility: 10mi
Dew Point: 47°   Wind: 5mph
Humidity: 72%   Direction: 240°WSW
Pressure: 29.54"   Gusts: NA
Location:  40.68°N, 73.42°W
Report Text: KFRG 260753Z AUTO 24004KT 10SM CLR 13/08 A2954 RMK AO2 SLP001 T01330083
Loading
Personal Weather Stations






























Interactive Weather Map
Tropical Storm Tracking
New forecast layout! Learn more

10-Day Weather Forecast

Advertisements
Track Severe Weather on mobile